ANZ weather

Angus Downs Airport
Angus Downs Station, Northern Territory, Australia

Public forecast

Using degrees Celsius for public forecast. Weather courtesy of forecast.io.

Closest aviation weather report (METAR) to Angus Downs Airport

Closest report is Ayers Rock Connellan Airport, 71.2 nm (131.9 km) W. Retrieved 2020/05/30 11:00 UTC (1 hour ago):

YAYE 301100Z AUTO 21004KT 9999 // NCD 20/10 Q1018

Closest aviation forecast (TAF) to Angus Downs Airport

Closest forecast is Alice Springs Airport, 115.5 nm (213.8 km) NE. Retrieved 2020/05/30 12:00 UTC (9 minutes ago):

TAF YBAS 301117Z 3012/3112 30007KT CAVOK FM310000 19010KT CAVOK